createdAt,value
2018-10-17T00:00:52.521Z,89.35
2018-10-17T00:01:52.474Z,86.76
2018-10-17T00:02:52.487Z,85.71
2018-10-17T00:03:52.468Z,85.96
2018-10-17T00:04:52.508Z,87.48
2018-10-17T00:05:52.466Z,84.89
2018-10-17T00:06:52.506Z,83.75
2018-10-17T00:07:52.485Z,84.66
2018-10-17T00:08:52.464Z,84.62
2018-10-17T00:09:52.477Z,87.82
2018-10-17T00:10:52.506Z,88.97
2018-10-17T00:11:52.460Z,88.68
2018-10-17T00:12:52.492Z,87.48
2018-10-17T00:13:52.452Z,87.29
2018-10-17T00:14:52.451Z,85.71
2018-10-17T00:15:52.438Z,85.86
2018-10-17T00:16:52.504Z,86.05
2018-10-17T00:17:52.447Z,87.54
2018-10-17T00:18:52.436Z,88.78
2018-10-17T00:19:52.430Z,89.06
2018-10-17T00:20:52.427Z,88.54
2018-10-17T00:21:52.429Z,87.20
2018-10-17T00:22:52.467Z,85.52
2018-10-17T00:23:52.442Z,85.33
2018-10-17T00:24:52.444Z,85.96
2018-10-17T00:25:52.424Z,85.42
2018-10-17T00:26:52.409Z,85.19
2018-10-17T00:27:52.404Z,85.86
2018-10-17T00:28:52.422Z,89.02
2018-10-17T00:29:52.416Z,92.55
2018-10-17T00:30:52.434Z,94.89
2018-10-17T00:31:52.399Z,95.84
2018-10-17T00:32:52.390Z,93.36
2018-10-17T00:33:52.388Z,91.78
2018-10-17T00:34:52.400Z,91.16
2018-10-17T00:35:52.391Z,88.78
2018-10-17T00:36:52.393Z,89.35
2018-10-17T00:37:52.377Z,88.15
2018-10-17T00:38:52.372Z,87.29
2018-10-17T00:39:52.383Z,88.54
2018-10-17T00:40:52.393Z,87.68
2018-10-17T00:41:52.372Z,88.40
2018-10-17T00:42:52.376Z,88.44
2018-10-17T00:43:52.387Z,87.39
2018-10-17T00:44:52.364Z,87.96
2018-10-17T00:45:52.355Z,87.48
2018-10-17T00:46:52.381Z,87.63
2018-10-17T00:47:52.351Z,88.11
2018-10-17T00:48:52.384Z,89.73
2018-10-17T00:49:52.341Z,90.69
2018-10-17T00:50:52.351Z,91.78
2018-10-17T00:51:52.334Z,93.17
2018-10-17T00:52:52.369Z,94.22
2018-10-17T00:53:52.334Z,93.36
2018-10-17T00:54:52.360Z,91.69
2018-10-17T00:55:52.330Z,92.69
2018-10-17T00:56:52.325Z,97.41
2018-10-17T00:57:52.365Z,99.51
2018-10-17T00:58:52.352Z,99.80
2018-10-17T00:59:52.308Z,98.18
2018-10-17T01:00:52.342Z,97.85
2018-10-17T01:01:52.324Z,95.84
2018-10-17T01:02:52.312Z,94.51
2018-10-17T01:03:52.293Z,93.41
2018-10-17T01:04:52.291Z,92.83
2018-10-17T01:05:52.328Z,92.55
2018-10-17T01:06:52.305Z,92.55
2018-10-17T01:07:52.284Z,91.07
2018-10-17T01:08:52.288Z,91.12
2018-10-17T01:09:52.276Z,91.12
2018-10-17T01:10:52.281Z,91.12
2018-10-17T01:11:52.278Z,91.41
2018-10-17T01:12:52.312Z,91.60
2018-10-17T01:13:52.261Z,90.93
2018-10-17T01:14:52.259Z,90.50
2018-10-17T01:15:52.265Z,89.45
2018-10-17T01:16:52.309Z,89.06
2018-10-17T01:17:52.251Z,89.25
2018-10-17T01:18:52.280Z,89.97
2018-10-17T01:19:52.246Z,90.83
2018-10-17T01:20:52.239Z,91.12
2018-10-17T01:21:52.246Z,91.02
2018-10-17T01:22:52.243Z,91.31
2018-10-17T01:23:52.233Z,89.88
2018-10-17T01:24:52.260Z,89.97
2018-10-17T01:25:52.245Z,88.78
2018-10-17T01:26:52.231Z,88.30
2018-10-17T01:27:52.220Z,89.45
2018-10-17T01:28:52.219Z,90.55
2018-10-17T01:29:52.258Z,89.50
2018-10-17T01:30:52.232Z,90.07
2018-10-17T01:31:52.224Z,90.26
2018-10-17T01:32:52.219Z,88.30
2018-10-17T01:33:52.205Z,88.40
2018-10-17T01:34:52.206Z,89.78
2018-10-17T01:35:52.199Z,89.88
2018-10-17T01:36:52.218Z,90.64
2018-10-17T01:37:52.225Z,90.26
2018-10-17T01:38:52.195Z,87.63
2018-10-17T01:39:52.184Z,86.87
2018-10-17T01:40:52.278Z,88.40
2018-10-17T01:41:52.227Z,88.73
2018-10-17T01:42:52.209Z,90.79
2018-10-17T01:43:52.172Z,92.50
2018-10-17T01:44:52.170Z,92.22
2018-10-17T01:45:52.167Z,91.83
2018-10-17T01:46:52.207Z,90.79
2018-10-17T01:47:52.177Z,90.07
2018-10-17T01:48:52.205Z,89.12
2018-10-17T01:49:52.164Z,89.78
2018-10-17T01:50:52.153Z,89.69
2018-10-17T01:51:52.157Z,89.31
2018-10-17T01:52:52.190Z,88.20
2018-10-17T01:53:52.136Z,87.92
2018-10-17T01:54:52.145Z,88.16
2018-10-17T01:55:52.127Z,88.45
2018-10-17T01:56:52.137Z,88.16
2018-10-17T01:57:52.141Z,89.59
2018-10-17T01:58:52.137Z,89.69
2018-10-17T01:59:52.145Z,90.79
2018-10-17T02:00:52.141Z,90.88
2018-10-17T02:01:52.131Z,91.55
2018-10-17T02:02:52.234Z,90.59
2018-10-17T02:03:52.138Z,90.55
2018-10-17T02:04:52.186Z,89.78
2018-10-17T02:05:52.107Z,89.69
2018-10-17T02:06:52.124Z,89.83
2018-10-17T02:07:52.095Z,90.17
2018-10-17T02:08:52.100Z,90.12
2018-10-17T02:09:52.091Z,90.41
2018-10-17T02:10:52.139Z,90.79
2018-10-17T02:11:52.103Z,90.41
2018-10-17T02:12:52.123Z,90.59
2018-10-17T02:13:52.074Z,90.59
2018-10-17T02:14:52.112Z,90.59
2018-10-17T02:15:52.083Z,90.69
2018-10-17T02:16:52.110Z,90.79
2018-10-17T02:17:52.081Z,89.40
2018-10-17T02:18:52.099Z,89.31
2018-10-17T02:19:52.077Z,89.36
2018-10-17T02:20:52.047Z,88.73
2018-10-17T02:21:52.065Z,88.54
2018-10-17T02:22:52.050Z,87.49
2018-10-17T02:23:52.035Z,86.82
2018-10-17T02:24:52.041Z,86.01
2018-10-17T02:25:52.049Z,86.63
2018-10-17T02:26:52.038Z,87.97
2018-10-17T02:27:52.030Z,86.73
2018-10-17T02:28:52.077Z,86.20
2018-10-17T02:29:52.041Z,86.35
2018-10-17T02:30:52.020Z,87.83
2018-10-17T02:31:52.064Z,88.64
2018-10-17T02:32:52.009Z,88.21
2018-10-17T02:33:52.071Z,88.40
2018-10-17T02:34:52.062Z,88.78
2018-10-17T02:35:52.018Z,89.74
2018-10-17T02:36:52.029Z,89.64
2018-10-17T02:37:51.995Z,89.07
2018-10-17T02:38:51.978Z,89.74
2018-10-17T02:39:52.012Z,89.93
2018-10-17T02:40:52.039Z,89.64
2018-10-17T02:41:51.971Z,90.03
2018-10-17T02:42:51.978Z,89.45
2018-10-17T02:43:51.977Z,88.21
2018-10-17T02:44:51.967Z,87.49
2018-10-17T02:45:51.957Z,88.88
2018-10-17T02:46:51.965Z,89.36
2018-10-17T02:47:51.969Z,88.21
2018-10-17T02:48:51.978Z,91.31
2018-10-17T02:49:51.941Z,94.79
2018-10-17T02:50:51.943Z,95.17
2018-10-17T02:51:51.948Z,93.12
2018-10-17T02:52:51.953Z,91.79
2018-10-17T02:53:51.927Z,90.79
2018-10-17T02:54:51.925Z,90.84
2018-10-17T02:55:51.937Z,91.50
2018-10-17T03:14:57.643Z,92.89
2018-10-17T03:15:57.586Z,96.17
2018-10-17T03:16:57.615Z,98.46
2018-10-17T03:17:57.596Z,99.99
2018-10-17T03:18:57.618Z,99.99
2018-10-17T03:19:57.576Z,97.79
2018-10-17T03:20:57.559Z,98.55
2018-10-17T03:21:57.550Z,97.89
2018-10-17T03:22:57.614Z,95.65
2018-10-17T03:23:57.537Z,94.89
2018-10-17T03:24:57.594Z,94.79
2018-10-17T03:25:57.548Z,97.60
2018-10-17T03:26:57.522Z,99.99
2018-10-17T03:27:57.547Z,99.99
2018-10-17T03:28:57.552Z,99.99
2018-10-17T03:29:57.502Z,98.41
2018-10-17T03:30:57.520Z,96.89
2018-10-17T03:31:57.496Z,95.32
2018-10-17T03:32:57.493Z,92.88
2018-10-17T03:33:57.503Z,92.03
2018-10-17T03:34:57.505Z,91.17
2018-10-17T03:35:57.533Z,90.69
2018-10-17T03:36:57.503Z,90.59
2018-10-17T03:37:57.473Z,94.51
2018-10-17T03:38:57.464Z,97.60
2018-10-17T03:39:57.469Z,99.41
2018-10-17T03:40:57.461Z,99.99
2018-10-17T03:41:57.452Z,99.99
2018-10-17T03:42:57.467Z,99.99
2018-10-17T03:43:57.444Z,99.99
2018-10-17T03:44:57.441Z,99.99
2018-10-17T03:45:57.438Z,99.99
2018-10-17T03:46:57.436Z,99.99
2018-10-17T03:47:57.425Z,99.99
2018-10-17T03:48:57.483Z,99.99
2018-10-17T03:49:57.466Z,98.60
2018-10-17T03:50:57.425Z,97.75
2018-10-17T03:51:57.418Z,96.80
2018-10-17T03:52:57.436Z,96.03
2018-10-17T03:53:57.397Z,96.32
2018-10-17T03:54:57.415Z,96.22
2018-10-17T03:55:57.395Z,94.98
2018-10-17T03:56:57.385Z,94.17
2018-10-17T03:57:57.388Z,92.93
2018-10-17T03:58:57.404Z,90.88
2018-10-17T03:59:57.380Z,88.54
2018-10-17T04:00:57.426Z,88.50
2018-10-17T04:01:57.412Z,89.07
2018-10-17T04:02:57.425Z,89.26
2018-10-17T04:03:57.354Z,89.26
2018-10-17T04:04:57.413Z,89.74
2018-10-17T04:05:57.355Z,91.41
2018-10-17T04:06:57.401Z,92.55
2018-10-17T04:07:57.344Z,92.08
2018-10-17T04:08:57.352Z,92.27
2018-10-17T04:09:57.333Z,92.17
2018-10-17T04:10:57.325Z,91.98
2018-10-17T04:11:57.328Z,92.27
2018-10-17T04:12:57.336Z,92.74
2018-10-17T04:13:57.318Z,92.69
2018-10-17T04:14:57.307Z,92.08
2018-10-17T04:15:57.334Z,92.65
2018-10-17T04:16:57.330Z,92.98
2018-10-17T04:17:57.303Z,93.27
2018-10-17T04:18:57.294Z,93.27
2018-10-17T04:19:57.287Z,92.98
2018-10-17T04:20:57.286Z,93.17
2018-10-17T04:21:57.318Z,94.65
2018-10-17T04:22:57.314Z,95.89
2018-10-17T04:23:57.405Z,95.70
2018-10-17T04:24:57.309Z,94.41
2018-10-17T04:25:57.272Z,93.37
2018-10-17T04:26:57.262Z,93.93
2018-10-17T04:27:57.257Z,93.55
2018-10-17T04:28:57.297Z,93.55
2018-10-17T04:29:57.270Z,92.89
2018-10-17T04:30:57.249Z,90.69
2018-10-17T04:31:57.252Z,88.40
2018-10-17T04:33:05.883Z,89.60
2018-10-17T04:34:50.661Z,92.32
2018-10-17T04:35:50.669Z,91.98
2018-10-17T04:36:50.643Z,91.22
2018-10-17T04:37:50.640Z,91.36
2018-10-17T04:38:50.642Z,92.41
2018-10-17T04:39:50.622Z,91.65
2018-10-17T04:40:50.629Z,91.36
2018-10-17T04:41:50.615Z,91.46
2018-10-17T04:42:50.607Z,92.79
2018-10-17T04:43:50.615Z,92.22
2018-10-17T04:44:50.604Z,92.22
2018-10-17T04:45:50.606Z,92.03
2018-10-17T04:46:50.596Z,94.93
2018-10-17T04:47:50.598Z,99.27
2018-10-17T04:48:50.591Z,99.99
2018-10-17T04:49:50.579Z,99.99
2018-10-17T04:50:50.575Z,99.99
2018-10-17T04:51:50.584Z,99.99
2018-10-17T04:52:50.719Z,99.99
2018-10-17T04:53:50.573Z,99.99
2018-10-17T04:54:50.561Z,99.99
2018-10-17T04:55:50.593Z,99.99
2018-10-17T04:56:50.551Z,99.99
2018-10-17T04:57:50.568Z,99.99
2018-10-17T04:58:50.536Z,99.99
2018-10-17T04:59:50.581Z,99.99
2018-10-17T05:00:50.550Z,99.99
2018-10-17T05:01:50.565Z,99.99
2018-10-17T05:02:50.527Z,99.99
2018-10-17T05:03:50.547Z,98.65
2018-10-17T05:04:50.578Z,98.18
2018-10-17T05:05:50.571Z,97.70
2018-10-17T05:06:50.554Z,96.27
2018-10-17T05:07:50.500Z,94.93
2018-10-17T05:08:50.501Z,95.51
2018-10-17T05:09:50.492Z,95.70
2018-10-17T05:10:50.490Z,95.51
2018-10-17T05:11:50.495Z,94.60
2018-10-17T05:12:50.480Z,93.46
2018-10-17T05:13:50.472Z,91.98
2018-10-17T05:14:50.478Z,90.74
2018-10-17T05:15:50.460Z,92.32
2018-10-17T05:16:50.521Z,93.55
2018-10-17T05:17:50.455Z,96.17
2018-10-17T05:18:50.534Z,97.89
2018-10-17T05:19:50.515Z,97.13
2018-10-17T05:20:50.467Z,95.79
2018-10-17T05:21:50.485Z,94.98
2018-10-17T05:22:50.430Z,95.98
2018-10-17T05:23:50.477Z,96.46
2018-10-17T05:24:50.467Z,94.74
2018-10-17T05:25:50.427Z,96.17
2018-10-17T05:26:50.433Z,98.79
2018-10-17T05:27:50.459Z,99.99
2018-10-17T05:28:50.419Z,99.93
2018-10-17T05:29:50.478Z,97.65
2018-10-17T05:30:50.445Z,97.51
2018-10-17T05:31:50.411Z,96.94
2018-10-17T05:32:50.413Z,96.46
2018-10-17T05:33:50.378Z,95.98
2018-10-17T05:34:50.378Z,96.08
2018-10-17T05:35:50.367Z,93.37
2018-10-17T05:36:50.375Z,90.55
2018-10-17T05:37:50.558Z,89.40
2018-10-17T05:38:50.379Z,91.65
2018-10-17T05:39:50.403Z,92.98
2018-10-17T05:40:50.402Z,92.69
2018-10-17T05:41:50.397Z,91.79
2018-10-17T05:42:50.341Z,90.55
2018-10-17T05:43:50.390Z,91.74
2018-10-17T05:44:50.335Z,93.84
2018-10-17T05:45:50.348Z,94.60
2018-10-17T05:46:50.324Z,94.98
2018-10-17T05:47:50.363Z,95.79
2018-10-17T05:48:50.365Z,95.22
2018-10-17T05:49:50.329Z,95.98
2018-10-17T05:50:50.341Z,95.51
2018-10-17T05:51:50.349Z,95.12
2018-10-17T05:52:50.294Z,94.93
2018-10-17T05:53:50.289Z,95.51
2018-10-17T05:54:50.284Z,93.70
2018-10-17T05:55:50.312Z,95.60
2018-10-17T05:56:50.301Z,95.51
2018-10-17T05:57:50.293Z,96.27
2018-10-17T05:58:50.294Z,96.36
2018-10-17T05:59:50.297Z,96.75
2018-10-17T06:00:50.312Z,96.84
2018-10-17T06:01:50.315Z,96.94
2018-10-17T06:02:50.302Z,96.55
2018-10-17T06:03:50.280Z,95.12
2018-10-17T06:04:50.291Z,95.22
2018-10-17T06:05:50.264Z,94.65
2018-10-17T06:06:50.283Z,93.79
2018-10-17T06:07:50.230Z,95.56
2018-10-17T06:08:50.268Z,94.32
2018-10-17T06:09:50.213Z,92.94
2018-10-17T06:10:50.215Z,93.79
2018-10-17T06:11:50.209Z,93.51
2018-10-17T06:12:50.202Z,92.32
2018-10-17T06:13:50.204Z,92.41
2018-10-17T06:14:50.204Z,92.32
2018-10-17T06:15:50.197Z,90.70
2018-10-17T06:16:50.238Z,91.46
2018-10-17T06:17:50.189Z,92.03
2018-10-17T06:18:50.180Z,92.03
2018-10-17T06:19:50.173Z,92.55
2018-10-17T06:20:50.171Z,92.84
2018-10-17T06:21:50.154Z,93.60
2018-10-17T06:22:50.159Z,93.79
2018-10-17T06:23:50.170Z,94.37
2018-10-17T06:24:50.169Z,94.17
2018-10-17T06:25:50.169Z,92.89
2018-10-17T06:26:50.133Z,92.50
2018-10-17T06:27:50.132Z,93.89
2018-10-17T06:28:50.147Z,95.12
2018-10-17T06:29:50.122Z,92.41
2018-10-17T06:30:50.165Z,92.41
2018-10-17T06:31:50.125Z,92.03
2018-10-17T06:32:50.125Z,90.55
2018-10-17T06:33:50.143Z,91.94
2018-10-17T06:34:50.164Z,92.69
2018-10-17T06:35:50.131Z,93.65
2018-10-17T06:36:50.107Z,94.17
2018-10-17T06:37:50.155Z,93.93
2018-10-17T06:38:50.101Z,95.03
2018-10-17T06:39:50.157Z,96.36
2018-10-17T06:40:50.124Z,97.31
2018-10-17T06:41:50.088Z,98.32
2018-10-17T06:42:50.105Z,98.98
2018-10-17T06:43:50.228Z,98.94
2018-10-17T06:44:50.195Z,98.36
2018-10-17T06:45:50.050Z,97.51
2018-10-17T06:46:50.066Z,98.84
2018-10-17T06:47:50.075Z,96.08
2018-10-17T06:48:50.057Z,95.46
2018-10-17T06:49:50.055Z,95.17
2018-10-17T06:50:50.064Z,94.98
2018-10-17T06:51:50.059Z,96.51
2018-10-17T06:52:50.025Z,97.99
2018-10-17T06:53:50.048Z,98.84
2018-10-17T06:54:50.012Z,98.55
2018-10-17T06:55:50.010Z,97.70
2018-10-17T06:56:50.010Z,97.65
2018-10-17T06:57:49.994Z,97.36
2018-10-17T06:58:50.053Z,96.51
2018-10-17T06:59:50.017Z,96.70
2018-10-17T07:00:50.009Z,96.12
2018-10-17T07:01:50.107Z,96.46
2018-10-17T07:02:50.038Z,96.65
2018-10-17T07:03:49.973Z,95.89
2018-10-17T07:04:49.979Z,97.61
2018-10-17T07:05:50.058Z,98.22
2018-10-17T07:06:49.960Z,99.27
2018-10-17T07:07:50.047Z,99.27
2018-10-17T07:08:49.969Z,99.46
2018-10-17T07:09:49.974Z,99.27
2018-10-17T07:10:49.959Z,98.27
2018-10-17T07:11:49.962Z,97.03
2018-10-17T07:12:49.959Z,96.56
2018-10-17T07:13:49.930Z,97.22
2018-10-17T07:14:49.956Z,97.41
2018-10-17T07:15:50.057Z,98.46
2018-10-17T07:16:49.923Z,97.61
2018-10-17T07:17:50.018Z,97.46
2018-10-17T07:18:49.928Z,97.70
2018-10-17T07:19:49.924Z,98.27
2018-10-17T07:20:49.926Z,97.99
2018-10-17T07:21:49.945Z,96.94
2018-10-17T07:22:49.910Z,96.32
2018-10-17T07:23:49.902Z,95.84
2018-10-17T07:24:49.919Z,95.84
2018-10-17T07:25:49.879Z,94.41
2018-10-17T07:26:49.893Z,93.93
2018-10-17T07:27:49.887Z,95.75
2018-10-17T07:28:50.028Z,95.84
2018-10-17T07:29:49.992Z,95.79
2018-10-17T07:30:49.886Z,96.36
2018-10-17T07:31:49.850Z,96.46
2018-10-17T07:32:49.848Z,96.32
2018-10-17T07:33:49.851Z,95.84
2018-10-17T07:34:49.849Z,95.17
2018-10-17T07:35:49.862Z,94.89
2018-10-17T07:36:49.846Z,94.89
2018-10-17T07:37:49.846Z,95.65
2018-10-17T07:38:49.903Z,96.32
2018-10-17T07:39:49.823Z,95.84
2018-10-17T07:40:49.819Z,94.89
2018-10-17T07:41:49.816Z,95.56
2018-10-17T07:42:49.810Z,95.37
2018-10-17T07:43:49.892Z,94.32
2018-10-17T07:44:49.799Z,93.79
2018-10-17T07:45:49.806Z,92.93
2018-10-17T07:46:49.810Z,93.84
2018-10-17T07:47:49.830Z,94.98
2018-10-17T07:48:49.824Z,94.41
2018-10-17T07:49:49.797Z,94.79
2018-10-17T07:50:49.779Z,94.41
2018-10-17T07:51:49.781Z,94.36
2018-10-17T07:52:49.801Z,94.07
2018-10-17T07:53:49.806Z,93.60
2018-10-17T07:54:49.769Z,93.22
2018-10-17T07:55:49.816Z,93.41
2018-10-17T07:56:49.774Z,92.74
2018-10-17T07:57:49.782Z,92.83
2018-10-17T07:58:49.799Z,92.36
2018-10-17T07:59:49.849Z,92.17
2018-10-17T08:00:49.794Z,92.74
2018-10-17T08:01:49.735Z,92.65
2018-10-17T08:02:49.746Z,92.83
2018-10-17T08:03:49.749Z,93.55
2018-10-17T08:04:49.752Z,92.12
2018-10-17T08:05:49.765Z,91.55
2018-10-17T08:06:49.813Z,91.55
2018-10-17T08:07:49.772Z,91.93
2018-10-17T08:08:49.721Z,91.64
2018-10-17T08:09:49.717Z,92.41
2018-10-17T08:10:49.708Z,91.26
2018-10-17T08:11:49.713Z,90.88
2018-10-17T08:12:49.736Z,91.26
2018-10-17T08:13:49.716Z,91.45
2018-10-17T08:14:49.695Z,91.07
2018-10-17T08:15:50.262Z,90.88
2018-10-17T08:16:49.711Z,91.07
2018-10-17T08:17:49.721Z,90.31
2018-10-17T08:18:49.715Z,90.45
2018-10-17T08:19:49.678Z,90.73
2018-10-17T08:20:49.720Z,90.73
2018-10-17T08:21:49.703Z,90.64
2018-10-17T08:22:49.675Z,90.73
2018-10-17T08:23:49.698Z,90.54
2018-10-17T08:24:49.666Z,89.97
2018-10-17T08:25:49.672Z,90.45
2018-10-17T08:26:49.675Z,90.64
2018-10-17T08:27:49.687Z,89.87
2018-10-17T08:28:49.673Z,89.59
2018-10-17T08:29:49.694Z,90.06
2018-10-17T08:30:49.660Z,89.73
2018-10-17T08:31:49.644Z,88.54
2018-10-17T08:32:49.665Z,88.68
2018-10-17T08:33:49.635Z,88.77
2018-10-17T08:34:49.632Z,87.82
2018-10-17T08:35:49.770Z,88.01
2018-10-17T08:36:49.846Z,88.01
2018-10-17T08:37:50.222Z,88.29
2018-10-17T08:38:49.621Z,87.53
2018-10-17T08:39:49.611Z,87.43
2018-10-17T08:40:49.653Z,87.91
2018-10-17T08:41:49.609Z,87.43
2018-10-17T08:42:49.663Z,87.62
2018-10-17T08:43:49.602Z,87.15
2018-10-17T08:44:49.608Z,87.62
2018-10-17T08:45:49.612Z,87.62
2018-10-17T08:46:49.605Z,87.91
2018-10-17T08:47:49.612Z,87.57
2018-10-17T08:48:49.605Z,87.66
2018-10-17T08:49:49.588Z,87.62
2018-10-17T08:50:49.723Z,87.62
2018-10-17T08:51:49.597Z,88.05
2018-10-17T08:52:49.598Z,88.24
2018-10-17T08:53:49.656Z,87.66
2018-10-17T08:54:49.624Z,87.38
2018-10-17T08:55:49.574Z,86.80
2018-10-17T08:56:49.621Z,85.99
2018-10-17T08:57:49.709Z,85.41
2018-10-17T08:58:49.613Z,85.03
2018-10-17T08:59:49.557Z,85.13
2018-10-17T09:00:49.613Z,84.55
2018-10-17T09:01:49.554Z,85.13
2018-10-17T09:02:49.630Z,85.61
2018-10-17T09:03:49.563Z,85.13
2018-10-17T09:04:49.576Z,83.89
2018-10-17T09:05:49.548Z,83.50
2018-10-17T09:06:49.550Z,83.60
2018-10-17T09:07:49.670Z,82.74
2018-10-17T09:08:49.545Z,83.40
2018-10-17T09:09:49.549Z,83.31
2018-10-17T09:10:49.553Z,83.89
2018-10-17T09:11:49.534Z,84.17
2018-10-17T09:12:49.535Z,83.03
2018-10-17T09:13:49.526Z,83.16
2018-10-17T09:14:49.544Z,82.87
2018-10-17T09:15:49.556Z,82.30
2018-10-17T09:16:49.614Z,82.40
2018-10-17T09:17:49.514Z,82.40
2018-10-17T09:18:49.522Z,81.92
2018-10-17T09:19:49.651Z,81.44
2018-10-17T09:20:49.783Z,81.57
2018-10-17T09:21:49.818Z,81.34
2018-10-17T09:22:49.530Z,81.15
2018-10-17T09:23:49.509Z,80.96
2018-10-17T09:24:49.512Z,81.34
2018-10-17T09:25:49.523Z,81.34
2018-10-17T09:26:49.501Z,81.82
2018-10-17T09:27:49.534Z,82.30
2018-10-17T09:28:49.493Z,81.29
2018-10-17T09:29:49.511Z,81.15
2018-10-17T09:30:49.532Z,81.48
2018-10-17T09:31:49.536Z,80.04
2018-10-17T09:32:49.530Z,79.66
2018-10-17T09:33:49.490Z,80.27
2018-10-17T09:34:49.485Z,80.43
2018-10-17T09:35:49.605Z,79.75
2018-10-17T09:36:49.486Z,80.62
2018-10-17T09:37:49.516Z,80.43
2018-10-17T09:38:49.497Z,79.99
2018-10-17T09:39:49.477Z,77.69
2018-10-17T09:40:49.497Z,77.02
2018-10-17T09:41:49.508Z,78.07
2018-10-17T09:42:58.213Z,77.59
2018-10-17T09:44:42.912Z,77.31
2018-10-17T09:45:42.884Z,78.55
2018-10-17T09:46:42.923Z,76.64
2018-10-17T09:47:42.892Z,75.71
2018-10-17T09:48:42.901Z,76.06
2018-10-17T09:49:42.881Z,76.48
2018-10-17T09:50:42.880Z,76.67
2018-10-17T09:51:42.892Z,76.64
2018-10-17T09:52:42.890Z,77.40
2018-10-17T09:53:42.889Z,77.11
2018-10-17T09:54:42.896Z,77.78
2018-10-17T09:55:42.897Z,78.55
2018-10-17T09:56:42.871Z,76.67
2018-10-17T09:57:42.871Z,76.00
2018-10-17T09:58:42.869Z,75.37
2018-10-17T09:59:42.886Z,74.89
2018-10-17T10:00:42.867Z,75.04
2018-10-17T10:01:42.887Z,74.85
2018-10-17T10:02:42.862Z,76.00
2018-10-17T10:03:43.094Z,75.90
2018-10-17T10:04:42.874Z,74.85
2018-10-17T10:05:42.871Z,75.18
2018-10-17T10:06:42.861Z,75.95
2018-10-17T10:07:42.881Z,74.98
2018-10-17T10:08:42.883Z,75.18
2018-10-17T10:09:42.859Z,75.65
2018-10-17T10:10:42.860Z,75.56
2018-10-17T10:11:42.879Z,76.29
2018-10-17T10:12:42.868Z,77.44
2018-10-17T10:13:42.856Z,78.02
2018-10-17T10:14:42.882Z,78.11
2018-10-17T10:15:42.849Z,76.81
2018-10-17T10:16:42.856Z,75.75
2018-10-17T10:17:42.930Z,75.85
2018-10-17T10:18:42.870Z,75.18
2018-10-17T10:19:42.850Z,75.85
2018-10-17T10:20:42.929Z,75.65
2018-10-17T10:21:42.843Z,74.93
2018-10-17T10:22:42.891Z,75.40
2018-10-17T10:23:42.928Z,74.35
2018-10-17T10:24:42.914Z,74.93
2018-10-17T10:25:42.846Z,74.98
2018-10-17T10:26:42.945Z,75.37
2018-10-17T10:27:42.844Z,75.40
2018-10-17T10:28:43.088Z,74.54
2018-10-17T10:29:42.940Z,75.12
2018-10-17T10:30:42.848Z,74.16
2018-10-17T10:31:42.860Z,74.26
2018-10-17T10:32:42.996Z,75.40
2018-10-17T10:33:42.901Z,75.40
2018-10-17T10:34:42.931Z,75.12
2018-10-17T10:35:42.867Z,75.31
2018-10-17T10:36:42.835Z,74.77
2018-10-17T10:37:42.841Z,73.52
2018-10-17T10:38:42.980Z,72.37
2018-10-17T10:39:42.841Z,72.37
2018-10-17T10:40:42.904Z,72.37
2018-10-17T10:41:42.838Z,72.75
2018-10-17T10:42:42.833Z,73.33
2018-10-17T10:43:42.852Z,72.89
2018-10-17T10:44:42.897Z,71.73
2018-10-17T10:45:42.953Z,71.70
2018-10-17T10:46:42.900Z,72.66
2018-10-17T10:47:42.898Z,72.79
2018-10-17T10:48:42.857Z,73.62
2018-10-17T10:49:42.875Z,73.91
2018-10-17T10:50:42.832Z,73.43
2018-10-17T10:51:42.891Z,73.37
2018-10-17T10:52:42.916Z,72.79
2018-10-17T10:53:42.833Z,72.41
2018-10-17T10:54:42.835Z,71.35
2018-10-17T10:55:42.839Z,70.97
2018-10-17T10:56:42.878Z,71.25
2018-10-17T10:57:42.916Z,72.31
2018-10-17T10:58:42.990Z,72.31
2018-10-17T10:59:42.930Z,71.73
2018-10-17T11:00:42.873Z,71.93
2018-10-17T11:01:42.921Z,71.93
2018-10-17T11:02:42.858Z,72.79
2018-10-17T11:03:42.882Z,72.60
2018-10-17T11:04:42.920Z,72.25
2018-10-17T11:05:43.078Z,71.29
2018-10-17T11:06:42.835Z,69.46
2018-10-17T11:07:42.868Z,69.50
2018-10-17T11:08:42.849Z,69.50
2018-10-17T11:09:42.837Z,69.75
2018-10-17T11:10:42.859Z,69.75
2018-10-17T11:11:42.848Z,69.60
2018-10-17T11:12:42.875Z,69.66
2018-10-17T11:13:42.900Z,70.81
2018-10-17T11:14:43.004Z,71.45
2018-10-17T11:15:42.836Z,71.64
2018-10-17T11:16:42.861Z,72.12
2018-10-17T11:17:42.842Z,71.29
2018-10-17T11:18:42.872Z,71.48
2018-10-17T11:19:42.846Z,71.19
2018-10-17T11:20:42.844Z,70.90
2018-10-17T11:21:42.916Z,70.94
2018-10-17T11:22:42.847Z,69.89
2018-10-17T11:23:42.850Z,69.12
2018-10-17T11:24:42.843Z,69.12
2018-10-17T11:25:42.855Z,69.40
2018-10-17T11:26:42.849Z,68.73
2018-10-17T11:27:42.868Z,69.44
2018-10-17T11:28:42.863Z,69.34
2018-10-17T11:29:42.842Z,68.54
2018-10-17T11:30:42.876Z,68.19
2018-10-17T11:31:42.855Z,68.38
2018-10-17T11:32:42.862Z,68.19
2018-10-17T11:33:42.851Z,68.76
2018-10-17T11:34:42.853Z,68.48
2018-10-17T11:35:42.855Z,68.19
2018-10-17T11:36:42.879Z,68.48
2018-10-17T11:37:42.910Z,69.12
2018-10-17T11:38:42.848Z,70.07
2018-10-17T11:39:42.880Z,70.46
2018-10-17T11:40:43.006Z,69.06
2018-10-17T11:41:42.860Z,68.57
2018-10-17T11:42:42.861Z,68.73
2018-10-17T11:43:42.871Z,68.92
2018-10-17T11:44:42.867Z,69.12
2018-10-17T11:45:42.868Z,69.21
2018-10-17T11:46:42.867Z,68.48
2018-10-17T11:47:42.915Z,67.90
2018-10-17T11:48:42.875Z,67.26
2018-10-17T11:49:42.895Z,66.94
2018-10-17T11:50:42.867Z,67.35
2018-10-17T11:51:42.882Z,67.65
2018-10-17T11:52:42.869Z,66.20
2018-10-17T11:53:42.908Z,67.07
2018-10-17T11:54:42.879Z,67.22
2018-10-17T11:55:42.879Z,67.32
2018-10-17T11:56:42.877Z,67.51
2018-10-17T11:57:42.900Z,68.29
2018-10-17T11:58:42.899Z,67.55
2018-10-17T11:59:42.989Z,67.16
2018-10-17T12:00:42.885Z,66.68
2018-10-17T12:01:42.893Z,66.33
2018-10-17T12:02:42.885Z,66.01
2018-10-17T12:03:43.073Z,65.91
2018-10-17T12:04:43.104Z,66.78
2018-10-17T12:05:43.020Z,66.78
2018-10-17T12:06:42.914Z,66.68
2018-10-17T12:07:42.913Z,67.07
2018-10-17T12:08:42.898Z,66.52
2018-10-17T12:09:42.926Z,66.24
2018-10-17T12:10:42.895Z,65.94
2018-10-17T12:11:42.932Z,67.07
2018-10-17T12:12:42.896Z,67.65
2018-10-17T12:13:42.936Z,66.97
2018-10-17T12:14:42.957Z,66.68
2018-10-17T12:15:42.909Z,65.94
2018-10-17T12:16:42.897Z,65.75
2018-10-17T12:19:04.041Z,65.56
2018-10-17T12:20:03.992Z,66.14
2018-10-17T12:21:04.049Z,65.46
2018-10-17T12:22:04.056Z,65.94
2018-10-17T12:23:03.963Z,65.75
2018-10-17T12:24:04.048Z,65.75
2018-10-17T12:25:03.982Z,65.85
2018-10-17T12:26:04.011Z,66.24
2018-10-17T12:27:04.047Z,65.37
2018-10-17T12:28:04.081Z,64.79
2018-10-17T12:29:04.012Z,66.04
2018-10-17T12:30:04.070Z,66.39
2018-10-17T12:31:04.008Z,66.88
2018-10-17T12:32:03.968Z,66.04
2018-10-17T12:33:04.016Z,65.94
2018-10-17T12:34:04.009Z,66.04
2018-10-17T12:35:04.023Z,66.91
2018-10-17T12:36:03.993Z,67.00
2018-10-17T12:37:04.025Z,66.42
2018-10-17T12:38:04.032Z,65.94
2018-10-17T12:39:04.097Z,66.04
2018-10-17T12:40:04.137Z,66.33
2018-10-17T12:41:04.183Z,65.11
2018-10-17T12:42:04.003Z,64.73
2018-10-17T12:43:04.000Z,65.30
2018-10-17T12:44:04.077Z,64.92
2018-10-17T12:45:04.089Z,65.30
2018-10-17T12:46:04.036Z,64.37
2018-10-17T12:47:04.146Z,63.02
2018-10-17T12:48:04.065Z,63.21
2018-10-17T12:49:04.041Z,64.15
2018-10-17T12:50:04.035Z,64.18
2018-10-17T12:51:04.044Z,64.18
2018-10-17T12:52:04.141Z,63.41
2018-10-17T12:53:04.276Z,63.12
2018-10-17T12:54:04.036Z,63.21
2018-10-17T12:55:04.070Z,64.08
2018-10-17T12:56:04.056Z,64.18
2018-10-17T12:57:04.028Z,64.18
2018-10-17T12:58:04.063Z,64.28
2018-10-17T12:59:04.185Z,63.41
2018-10-17T13:00:04.069Z,62.48
2018-10-17T13:01:04.136Z,62.63
2018-10-17T13:02:04.052Z,63.02
2018-10-17T13:03:04.039Z,63.50
2018-10-17T13:04:04.047Z,63.31
2018-10-17T13:05:04.149Z,64.08
2018-10-17T13:06:04.101Z,63.41
2018-10-17T13:07:04.143Z,64.25
2018-10-17T13:08:04.069Z,63.89
2018-10-17T13:09:04.075Z,63.02
2018-10-17T13:10:04.111Z,64.47
2018-10-17T13:11:04.071Z,64.37
2018-10-17T13:12:04.061Z,62.48
2018-10-17T13:13:04.098Z,61.90
2018-10-17T13:14:04.065Z,61.80